sensor_id;sensor_type;location;lat;lon;timestamp;temperature;humidity
6054;DHT22;3055;50.886;14.814;2023-04-30T00:00:49;10.70;99.90
6054;DHT22;3055;50.886;14.814;2023-04-30T00:03:18;10.70;99.90
6054;DHT22;3055;50.886;14.814;2023-04-30T00:05:45;10.60;99.90
6054;DHT22;3055;50.886;14.814;2023-04-30T00:08:15;10.60;99.90
6054;DHT22;3055;50.886;14.814;2023-04-30T00:10:42;10.60;99.90
6054;DHT22;3055;50.886;14.814;2023-04-30T00:13:09;10.50;99.90
6054;DHT22;3055;50.886;14.814;2023-04-30T00:15:38;10.40;99.90
6054;DHT22;3055;50.886;14.814;2023-04-30T00:18:05;10.30;99.90
6054;DHT22;3055;50.886;14.814;2023-04-30T00:20:34;10.20;99.90
6054;DHT22;3055;50.886;14.814;2023-04-30T00:23:01;10.20;99.90
6054;DHT22;3055;50.886;14.814;2023-04-30T00:25:28;10.10;99.90
6054;DHT22;3055;50.886;14.814;2023-04-30T00:27:56;10.00;99.90
6054;DHT22;3055;50.886;14.814;2023-04-30T00:30:23;9.80;99.90
6054;DHT22;3055;50.886;14.814;2023-04-30T00:32:50;9.80;99.90
6054;DHT22;3055;50.886;14.814;2023-04-30T00:35:17;9.70;99.90
6054;DHT22;3055;50.886;14.814;2023-04-30T00:37:45;9.60;99.90
6054;DHT22;3055;50.886;14.814;2023-04-30T00:40:12;9.60;99.90
6054;DHT22;3055;50.886;14.814;2023-04-30T00:42:39;9.50;99.90
6054;DHT22;3055;50.886;14.814;2023-04-30T00:45:07;9.40;99.90
6054;DHT22;3055;50.886;14.814;2023-04-30T00:47:34;9.30;99.90
6054;DHT22;3055;50.886;14.814;2023-04-30T00:50:01;9.20;99.90
6054;DHT22;3055;50.886;14.814;2023-04-30T00:52:29;9.10;99.90
6054;DHT22;3055;50.886;14.814;2023-04-30T00:54:58;9.10;99.90
6054;DHT22;3055;50.886;14.814;2023-04-30T00:57:25;9.00;99.90
6054;DHT22;3055;50.886;14.814;2023-04-30T00:59:53;9.00;99.90
6054;DHT22;3055;50.886;14.814;2023-04-30T01:02:21;8.90;99.90
6054;DHT22;3055;50.886;14.814;2023-04-30T01:04:49;8.90;99.90
6054;DHT22;3055;50.886;14.814;2023-04-30T01:07:17;8.80;99.90
6054;DHT22;3055;50.886;14.814;2023-04-30T01:09:45;8.80;99.90
6054;DHT22;3055;50.886;14.814;2023-04-30T01:12:19;8.80;99.90
6054;DHT22;3055;50.886;14.814;2023-04-30T01:14:54;8.90;99.90
6054;DHT22;3055;50.886;14.814;2023-04-30T01:17:29;8.90;99.90
6054;DHT22;3055;50.886;14.814;2023-04-30T01:19:58;9.00;99.90
6054;DHT22;3055;50.886;14.814;2023-04-30T01:22:35;9.10;99.90
6054;DHT22;3055;50.886;14.814;2023-04-30T01:25:32;9.20;99.90
6054;DHT22;3055;50.886;14.814;2023-04-30T01:28:13;9.20;99.90
6054;DHT22;3055;50.886;14.814;2023-04-30T01:30:41;9.20;99.90
6054;DHT22;3055;50.886;14.814;2023-04-30T01:33:10;9.30;99.90
6054;DHT22;3055;50.886;14.814;2023-04-30T01:36:00;9.40;99.90
6054;DHT22;3055;50.886;14.814;2023-04-30T01:38:44;9.40;99.90
6054;DHT22;3055;50.886;14.814;2023-04-30T01:41:22;9.50;99.90
6054;DHT22;3055;50.886;14.814;2023-04-30T01:44:05;9.50;99.90
6054;DHT22;3055;50.886;14.814;2023-04-30T01:46:38;9.70;99.90
6054;DHT22;3055;50.886;14.814;2023-04-30T01:49:13;9.60;99.90
6054;DHT22;3055;50.886;14.814;2023-04-30T01:51:42;9.60;99.90
6054;DHT22;3055;50.886;14.814;2023-04-30T01:54:17;9.50;99.90
6054;DHT22;3055;50.886;14.814;2023-04-30T01:56:52;9.50;99.90
6054;DHT22;3055;50.886;14.814;2023-04-30T01:59:21;9.40;99.90
6054;DHT22;3055;50.886;14.814;2023-04-30T02:01:49;9.50;99.90
6054;DHT22;3055;50.886;14.814;2023-04-30T02:04:16;9.50;99.90
6054;DHT22;3055;50.886;14.814;2023-04-30T02:06:43;9.40;99.90
6054;DHT22;3055;50.886;14.814;2023-04-30T02:09:10;9.40;99.90
6054;DHT22;3055;50.886;14.814;2023-04-30T02:11:37;9.40;99.90
6054;DHT22;3055;50.886;14.814;2023-04-30T02:14:05;9.50;99.90
6054;DHT22;3055;50.886;14.814;2023-04-30T02:16:33;9.50;99.90
6054;DHT22;3055;50.886;14.814;2023-04-30T02:19:00;9.60;99.90
6054;DHT22;3055;50.886;14.814;2023-04-30T02:21:27;9.70;99.90
6054;DHT22;3055;50.886;14.814;2023-04-30T02:23:54;9.70;99.90
6054;DHT22;3055;50.886;14.814;2023-04-30T02:26:21;9.60;99.90
6054;DHT22;3055;50.886;14.814;2023-04-30T02:28:48;9.60;99.90
6054;DHT22;3055;50.886;14.814;2023-04-30T02:31:15;9.60;99.90
6054;DHT22;3055;50.886;14.814;2023-04-30T02:33:44;9.60;99.90
6054;DHT22;3055;50.886;14.814;2023-04-30T02:36:11;9.50;99.90
6054;DHT22;3055;50.886;14.814;2023-04-30T02:38:38;9.60;99.90
6054;DHT22;3055;50.886;14.814;2023-04-30T02:41:05;9.50;99.90
6054;DHT22;3055;50.886;14.814;2023-04-30T02:43:32;9.50;99.90
6054;DHT22;3055;50.886;14.814;2023-04-30T02:45:59;9.60;99.90
6054;DHT22;3055;50.886;14.814;2023-04-30T02:48:26;9.70;99.90
6054;DHT22;3055;50.886;14.814;2023-04-30T02:50:54;9.80;99.90
6054;DHT22;3055;50.886;14.814;2023-04-30T02:53:22;9.80;99.90
6054;DHT22;3055;50.886;14.814;2023-04-30T02:55:49;9.80;99.90
6054;DHT22;3055;50.886;14.814;2023-04-30T02:58:16;9.80;99.90
6054;DHT22;3055;50.886;14.814;2023-04-30T03:00:43;9.70;99.90
6054;DHT22;3055;50.886;14.814;2023-04-30T03:03:10;9.70;99.90
6054;DHT22;3055;50.886;14.814;2023-04-30T03:05:37;9.70;99.90
6054;DHT22;3055;50.886;14.814;2023-04-30T03:08:05;9.60;99.90
6054;DHT22;3055;50.886;14.814;2023-04-30T03:10:32;9.50;99.90
6054;DHT22;3055;50.886;14.814;2023-04-30T03:12:59;9.40;99.90
6054;DHT22;3055;50.886;14.814;2023-04-30T03:15:26;9.40;99.90
6054;DHT22;3055;50.886;14.814;2023-04-30T03:17:53;9.40;99.90
6054;DHT22;3055;50.886;14.814;2023-04-30T03:20:20;9.20;99.90
6054;DHT22;3055;50.886;14.814;2023-04-30T03:22:47;9.10;99.90
6054;DHT22;3055;50.886;14.814;2023-04-30T03:25:16;8.90;99.90
6054;DHT22;3055;50.886;14.814;2023-04-30T03:27:43;8.70;99.90
6054;DHT22;3055;50.886;14.814;2023-04-30T03:30:10;8.60;99.90
6054;DHT22;3055;50.886;14.814;2023-04-30T03:32:37;8.50;99.90
6054;DHT22;3055;50.886;14.814;2023-04-30T03:35:05;8.40;99.90
6054;DHT22;3055;50.886;14.814;2023-04-30T03:37:32;8.30;99.90
6054;DHT22;3055;50.886;14.814;2023-04-30T03:39:59;8.20;99.90
6054;DHT22;3055;50.886;14.814;2023-04-30T03:42:28;8.00;99.90
6054;DHT22;3055;50.886;14.814;2023-04-30T03:44:55;8.00;99.90
6054;DHT22;3055;50.886;14.814;2023-04-30T03:47:22;7.90;99.90
6054;DHT22;3055;50.886;14.814;2023-04-30T03:49:49;7.80;99.90
6054;DHT22;3055;50.886;14.814;2023-04-30T03:52:19;7.80;99.90
6054;DHT22;3055;50.886;14.814;2023-04-30T03:54:46;7.80;99.90
6054;DHT22;3055;50.886;14.814;2023-04-30T03:57:13;7.90;99.90
6054;DHT22;3055;50.886;14.814;2023-04-30T03:59:42;8.00;99.90
6054;DHT22;3055;50.886;14.814;2023-04-30T04:02:09;8.10;99.90
6054;DHT22;3055;50.886;14.814;2023-04-30T04:04:36;8.20;99.90
6054;DHT22;3055;50.886;14.814;2023-04-30T04:07:03;8.50;99.90
6054;DHT22;3055;50.886;14.814;2023-04-30T04:09:32;8.50;99.90
6054;DHT22;3055;50.886;14.814;2023-04-30T04:11:59;8.60;99.90
6054;DHT22;3055;50.886;14.814;2023-04-30T04:14:27;8.60;99.90
6054;DHT22;3055;50.886;14.814;2023-04-30T04:16:55;8.60;99.90
6054;DHT22;3055;50.886;14.814;2023-04-30T04:19:24;8.60;99.90
6054;DHT22;3055;50.886;14.814;2023-04-30T04:21:51;8.70;99.90
6054;DHT22;3055;50.886;14.814;2023-04-30T04:24:18;8.80;99.90
6054;DHT22;3055;50.886;14.814;2023-04-30T04:26:45;8.80;99.90
6054;DHT22;3055;50.886;14.814;2023-04-30T04:29:12;8.80;99.90
6054;DHT22;3055;50.886;14.814;2023-04-30T04:31:39;8.90;99.90
6054;DHT22;3055;50.886;14.814;2023-04-30T04:34:08;9.00;99.90
6054;DHT22;3055;50.886;14.814;2023-04-30T04:36:36;9.10;99.90
6054;DHT22;3055;50.886;14.814;2023-04-30T04:39:03;9.20;99.90
6054;DHT22;3055;50.886;14.814;2023-04-30T04:41:31;9.30;99.90
6054;DHT22;3055;50.886;14.814;2023-04-30T04:43:59;9.40;99.90
6054;DHT22;3055;50.886;14.814;2023-04-30T04:46:28;9.40;99.90
6054;DHT22;3055;50.886;14.814;2023-04-30T04:48:56;9.50;99.90
6054;DHT22;3055;50.886;14.814;2023-04-30T04:51:24;9.40;99.90
6054;DHT22;3055;50.886;14.814;2023-04-30T04:53:51;9.40;99.90
6054;DHT22;3055;50.886;14.814;2023-04-30T04:56:19;9.50;99.90
6054;DHT22;3055;50.886;14.814;2023-04-30T04:58:46;9.50;99.90
6054;DHT22;3055;50.886;14.814;2023-04-30T05:01:13;9.60;99.90
6054;DHT22;3055;50.886;14.814;2023-04-30T05:03:40;9.80;99.90
6054;DHT22;3055;50.886;14.814;2023-04-30T05:06:07;9.90;99.90
6054;DHT22;3055;50.886;14.814;2023-04-30T05:08:35;10.10;99.50
6054;DHT22;3055;50.886;14.814;2023-04-30T05:11:02;10.30;97.80
6054;DHT22;3055;50.886;14.814;2023-04-30T05:13:30;10.40;83.00
6054;DHT22;3055;50.886;14.814;2023-04-30T05:15:57;10.60;90.30
6054;DHT22;3055;50.886;14.814;2023-04-30T05:18:24;10.70;68.80
6054;DHT22;3055;50.886;14.814;2023-04-30T05:20:51;10.80;36.10
6054;DHT22;3055;50.886;14.814;2023-04-30T05:23:18;10.90;30.00
6054;DHT22;3055;50.886;14.814;2023-04-30T05:25:50;11.00;23.70
6054;DHT22;3055;50.886;14.814;2023-04-30T05:28:18;11.00;1.00
6054;DHT22;3055;50.886;14.814;2023-04-30T05:30:45;11.00;6.90
6054;DHT22;3055;50.886;14.814;2023-04-30T05:33:12;11.10;1.00
6054;DHT22;3055;50.886;14.814;2023-04-30T05:35:39;11.20;7.40
6054;DHT22;3055;50.886;14.814;2023-04-30T05:38:06;11.30;1.00
6054;DHT22;3055;50.886;14.814;2023-04-30T05:40:33;11.50;1.00
6054;DHT22;3055;50.886;14.814;2023-04-30T05:43:02;11.50;27.90
6054;DHT22;3055;50.886;14.814;2023-04-30T05:45:29;11.40;5.20
6054;DHT22;3055;50.886;14.814;2023-04-30T05:47:56;11.40;1.00
6054;DHT22;3055;50.886;14.814;2023-04-30T05:50:23;11.30;1.00
6054;DHT22;3055;50.886;14.814;2023-04-30T05:52:50;11.40;1.00
6054;DHT22;3055;50.886;14.814;2023-04-30T05:55:17;11.30;1.00
6054;DHT22;3055;50.886;14.814;2023-04-30T05:57:44;11.50;1.00
6054;DHT22;3055;50.886;14.814;2023-04-30T06:00:14;11.60;99.90
6054;DHT22;3055;50.886;14.814;2023-04-30T06:02:41;11.70;99.90
6054;DHT22;3055;50.886;14.814;2023-04-30T06:05:08;11.50;99.90
6054;DHT22;3055;50.886;14.814;2023-04-30T06:07:36;11.40;99.90
6054;DHT22;3055;50.886;14.814;2023-04-30T06:10:04;11.20;99.90
6054;DHT22;3055;50.886;14.814;2023-04-30T06:12:31;11.10;99.90
6054;DHT22;3055;50.886;14.814;2023-04-30T06:14:58;11.00;99.90
6054;DHT22;3055;50.886;14.814;2023-04-30T06:17:27;11.00;99.90
6054;DHT22;3055;50.886;14.814;2023-04-30T06:19:54;10.90;99.90
6054;DHT22;3055;50.886;14.814;2023-04-30T06:22:23;11.00;99.90
6054;DHT22;3055;50.886;14.814;2023-04-30T06:24:50;11.00;99.90
6054;DHT22;3055;50.886;14.814;2023-04-30T06:27:17;11.10;99.90
6054;DHT22;3055;50.886;14.814;2023-04-30T06:29:44;11.20;99.90
6054;DHT22;3055;50.886;14.814;2023-04-30T06:32:11;11.30;99.90
6054;DHT22;3055;50.886;14.814;2023-04-30T06:34:39;11.30;99.90
6054;DHT22;3055;50.886;14.814;2023-04-30T06:37:06;11.30;99.90
6054;DHT22;3055;50.886;14.814;2023-04-30T06:39:33;11.30;99.90
6054;DHT22;3055;50.886;14.814;2023-04-30T06:42:00;11.20;99.90
6054;DHT22;3055;50.886;14.814;2023-04-30T06:44:28;11.20;99.90
6054;DHT22;3055;50.886;14.814;2023-04-30T06:46:55;11.20;99.90
6054;DHT22;3055;50.886;14.814;2023-04-30T06:49:22;11.30;99.90
6054;DHT22;3055;50.886;14.814;2023-04-30T06:51:51;11.30;99.90
6054;DHT22;3055;50.886;14.814;2023-04-30T06:54:19;11.30;99.90
6054;DHT22;3055;50.886;14.814;2023-04-30T06:56:47;11.30;99.90
6054;DHT22;3055;50.886;14.814;2023-04-30T06:59:14;11.40;99.90
6054;DHT22;3055;50.886;14.814;2023-04-30T07:01:42;11.50;99.90
6054;DHT22;3055;50.886;14.814;2023-04-30T07:04:09;11.60;99.90
6054;DHT22;3055;50.886;14.814;2023-04-30T07:06:36;11.50;99.90
6054;DHT22;3055;50.886;14.814;2023-04-30T07:09:04;11.70;99.90
6054;DHT22;3055;50.886;14.814;2023-04-30T07:11:31;11.90;99.90
6054;DHT22;3055;50.886;14.814;2023-04-30T07:13:58;12.20;99.90
6054;DHT22;3055;50.886;14.814;2023-04-30T07:16:25;12.30;99.90
6054;DHT22;3055;50.886;14.814;2023-04-30T07:18:53;12.70;99.90
6054;DHT22;3055;50.886;14.814;2023-04-30T07:21:20;12.80;99.90
6054;DHT22;3055;50.886;14.814;2023-04-30T07:23:47;12.70;99.90
6054;DHT22;3055;50.886;14.814;2023-04-30T07:26:17;12.60;99.90
6054;DHT22;3055;50.886;14.814;2023-04-30T07:28:46;12.60;99.90
6054;DHT22;3055;50.886;14.814;2023-04-30T07:31:13;12.30;99.90
6054;DHT22;3055;50.886;14.814;2023-04-30T07:33:40;12.20;99.90
6054;DHT22;3055;50.886;14.814;2023-04-30T07:36:08;12.20;99.90
6054;DHT22;3055;50.886;14.814;2023-04-30T07:38:35;12.30;99.90
6054;DHT22;3055;50.886;14.814;2023-04-30T07:41:02;12.60;99.90
6054;DHT22;3055;50.886;14.814;2023-04-30T07:43:30;12.90;99.90
6054;DHT22;3055;50.886;14.814;2023-04-30T07:45:57;13.10;99.90
6054;DHT22;3055;50.886;14.814;2023-04-30T07:48:25;13.20;99.90
6054;DHT22;3055;50.886;14.814;2023-04-30T07:50:52;13.20;95.70
6054;DHT22;3055;50.886;14.814;2023-04-30T07:53:19;13.10;85.60
6054;DHT22;3055;50.886;14.814;2023-04-30T07:55:46;13.10;79.50
6054;DHT22;3055;50.886;14.814;2023-04-30T07:58:13;13.00;78.40
6054;DHT22;3055;50.886;14.814;2023-04-30T08:00:41;13.30;88.50
6054;DHT22;3055;50.886;14.814;2023-04-30T08:03:08;13.70;63.70
6054;DHT22;3055;50.886;14.814;2023-04-30T08:05:35;13.90;63.70
6054;DHT22;3055;50.886;14.814;2023-04-30T08:08:03;14.20;29.70
6054;DHT22;3055;50.886;14.814;2023-04-30T08:10:30;14.20;2.90
6054;DHT22;3055;50.886;14.814;2023-04-30T08:12:57;14.00;1.00
6054;DHT22;3055;50.886;14.814;2023-04-30T08:15:25;13.70;1.00
6054;DHT22;3055;50.886;14.814;2023-04-30T08:17:53;13.60;1.00
6054;DHT22;3055;50.886;14.814;2023-04-30T08:20:20;13.80;1.00
6054;DHT22;3055;50.886;14.814;2023-04-30T08:22:48;13.80;1.00
6054;DHT22;3055;50.886;14.814;2023-04-30T08:25:15;14.20;1.00
6054;DHT22;3055;50.886;14.814;2023-04-30T08:27:43;14.60;1.00
6054;DHT22;3055;50.886;14.814;2023-04-30T08:30:11;14.70;1.00
6054;DHT22;3055;50.886;14.814;2023-04-30T08:32:38;14.70;1.00
6054;DHT22;3055;50.886;14.814;2023-04-30T08:35:07;14.60;1.00
6054;DHT22;3055;50.886;14.814;2023-04-30T08:37:34;14.70;1.00
6054;DHT22;3055;50.886;14.814;2023-04-30T08:40:01;14.80;1.00
6054;DHT22;3055;50.886;14.814;2023-04-30T08:42:30;14.60;1.00
6054;DHT22;3055;50.886;14.814;2023-04-30T08:45:02;14.40;1.00
6054;DHT22;3055;50.886;14.814;2023-04-30T08:47:30;14.20;1.00
6054;DHT22;3055;50.886;14.814;2023-04-30T08:49:57;14.20;1.00
6054;DHT22;3055;50.886;14.814;2023-04-30T08:52:25;14.20;1.00
6054;DHT22;3055;50.886;14.814;2023-04-30T08:54:54;14.00;1.00
6054;DHT22;3055;50.886;14.814;2023-04-30T08:57:23;13.80;1.00
6054;DHT22;3055;50.886;14.814;2023-04-30T08:59:50;13.90;1.00
6054;DHT22;3055;50.886;14.814;2023-04-30T09:02:17;13.80;1.00
6054;DHT22;3055;50.886;14.814;2023-04-30T09:04:45;13.60;1.00
6054;DHT22;3055;50.886;14.814;2023-04-30T09:07:12;13.70;1.00
6054;DHT22;3055;50.886;14.814;2023-04-30T09:09:41;13.60;1.00
6054;DHT22;3055;50.886;14.814;2023-04-30T09:12:12;13.30;1.00
6054;DHT22;3055;50.886;14.814;2023-04-30T09:14:40;13.40;1.00
6054;DHT22;3055;50.886;14.814;2023-04-30T09:17:07;13.70;1.00
6054;DHT22;3055;50.886;14.814;2023-04-30T09:19:34;14.20;1.00
6054;DHT22;3055;50.886;14.814;2023-04-30T09:22:22;14.50;1.00
6054;DHT22;3055;50.886;14.814;2023-04-30T09:24:51;14.50;1.00
6054;DHT22;3055;50.886;14.814;2023-04-30T09:27:20;14.30;1.00
6054;DHT22;3055;50.886;14.814;2023-04-30T09:29:47;14.60;1.00
6054;DHT22;3055;50.886;14.814;2023-04-30T09:32:14;14.80;1.00
6054;DHT22;3055;50.886;14.814;2023-04-30T09:34:42;14.80;1.00
6054;DHT22;3055;50.886;14.814;2023-04-30T09:37:09;14.50;1.00
6054;DHT22;3055;50.886;14.814;2023-04-30T09:39:46;14.50;1.00
6054;DHT22;3055;50.886;14.814;2023-04-30T09:42:15;14.30;1.00
6054;DHT22;3055;50.886;14.814;2023-04-30T09:44:42;14.40;1.00
6054;DHT22;3055;50.886;14.814;2023-04-30T09:47:14;14.30;1.00
6054;DHT22;3055;50.886;14.814;2023-04-30T09:49:42;14.10;1.00
6054;DHT22;3055;50.886;14.814;2023-04-30T09:52:10;14.20;1.00
6054;DHT22;3055;50.886;14.814;2023-04-30T09:54:37;14.40;1.00
6054;DHT22;3055;50.886;14.814;2023-04-30T09:57:06;14.90;1.00
6054;DHT22;3055;50.886;14.814;2023-04-30T09:59:37;15.30;1.00
6054;DHT22;3055;50.886;14.814;2023-04-30T10:02:06;15.40;1.00
6054;DHT22;3055;50.886;14.814;2023-04-30T10:04:35;15.30;1.00
6054;DHT22;3055;50.886;14.814;2023-04-30T10:07:11;15.00;1.00
6054;DHT22;3055;50.886;14.814;2023-04-30T10:09:40;15.00;1.00
6054;DHT22;3055;50.886;14.814;2023-04-30T10:12:13;14.90;1.00
6054;DHT22;3055;50.886;14.814;2023-04-30T10:14:47;14.80;1.00
6054;DHT22;3055;50.886;14.814;2023-04-30T10:17:17;15.00;1.00
6054;DHT22;3055;50.886;14.814;2023-04-30T10:19:48;15.10;1.00
6054;DHT22;3055;50.886;14.814;2023-04-30T10:22:18;15.00;1.00
6054;DHT22;3055;50.886;14.814;2023-04-30T10:24:46;14.80;1.00
6054;DHT22;3055;50.886;14.814;2023-04-30T10:27:14;14.80;1.00
6054;DHT22;3055;50.886;14.814;2023-04-30T10:29:43;14.70;1.00
6054;DHT22;3055;50.886;14.814;2023-04-30T10:32:11;14.70;1.00
6054;DHT22;3055;50.886;14.814;2023-04-30T10:34:44;14.80;1.00
6054;DHT22;3055;50.886;14.814;2023-04-30T10:37:20;15.00;1.00
6054;DHT22;3055;50.886;14.814;2023-04-30T10:39:50;15.10;1.00
6054;DHT22;3055;50.886;14.814;2023-04-30T10:42:17;15.10;1.00
6054;DHT22;3055;50.886;14.814;2023-04-30T10:44:46;15.00;1.00
6054;DHT22;3055;50.886;14.814;2023-04-30T10:47:14;14.80;1.00
6054;DHT22;3055;50.886;14.814;2023-04-30T10:49:44;14.60;1.00
6054;DHT22;3055;50.886;14.814;2023-04-30T10:52:12;14.50;1.00
6054;DHT22;3055;50.886;14.814;2023-04-30T10:54:48;14.70;1.00
6054;DHT22;3055;50.886;14.814;2023-04-30T10:57:16;14.70;1.00
6054;DHT22;3055;50.886;14.814;2023-04-30T10:59:52;14.90;1.00
6054;DHT22;3055;50.886;14.814;2023-04-30T11:02:19;15.00;1.00
6054;DHT22;3055;50.886;14.814;2023-04-30T11:05:12;14.80;1.00
6054;DHT22;3055;50.886;14.814;2023-04-30T11:07:49;14.80;1.00
6054;DHT22;3055;50.886;14.814;2023-04-30T11:10:20;15.00;1.00
6054;DHT22;3055;50.886;14.814;2023-04-30T11:12:48;15.20;1.00
6054;DHT22;3055;50.886;14.814;2023-04-30T11:15:19;15.40;1.00
6054;DHT22;3055;50.886;14.814;2023-04-30T11:17:48;15.40;1.00
6054;DHT22;3055;50.886;14.814;2023-04-30T11:20:18;15.40;1.00
6054;DHT22;3055;50.886;14.814;2023-04-30T11:22:45;15.70;1.00
6054;DHT22;3055;50.886;14.814;2023-04-30T11:25:17;15.80;1.00
6054;DHT22;3055;50.886;14.814;2023-04-30T11:27:45;15.90;1.00
6054;DHT22;3055;50.886;14.814;2023-04-30T11:30:13;15.90;1.00
6054;DHT22;3055;50.886;14.814;2023-04-30T11:32:43;15.90;1.00
6054;DHT22;3055;50.886;14.814;2023-04-30T11:35:13;16.10;1.00
6054;DHT22;3055;50.886;14.814;2023-04-30T11:37:43;16.40;1.00
6054;DHT22;3055;50.886;14.814;2023-04-30T11:40:11;16.60;1.00
6054;DHT22;3055;50.886;14.814;2023-04-30T11:42:40;16.60;1.00
6054;DHT22;3055;50.886;14.814;2023-04-30T11:45:10;16.80;1.00
6054;DHT22;3055;50.886;14.814;2023-04-30T11:47:43;16.80;1.00
6054;DHT22;3055;50.886;14.814;2023-04-30T11:50:12;16.70;1.00
6054;DHT22;3055;50.886;14.814;2023-04-30T11:52:40;16.70;1.00
6054;DHT22;3055;50.886;14.814;2023-04-30T11:55:12;16.60;1.00
6054;DHT22;3055;50.886;14.814;2023-04-30T11:57:41;16.70;1.00
6054;DHT22;3055;50.886;14.814;2023-04-30T12:00:12;16.50;1.00
6054;DHT22;3055;50.886;14.814;2023-04-30T12:02:42;16.30;1.00
6054;DHT22;3055;50.886;14.814;2023-04-30T12:05:14;16.10;1.00
6054;DHT22;3055;50.886;14.814;2023-04-30T12:07:48;16.10;1.00
6054;DHT22;3055;50.886;14.814;2023-04-30T12:10:16;16.20;1.00
6054;DHT22;3055;50.886;14.814;2023-04-30T12:12:44;16.40;1.00
6054;DHT22;3055;50.886;14.814;2023-04-30T12:15:13;16.50;1.00
6054;DHT22;3055;50.886;14.814;2023-04-30T12:17:42;16.50;1.00
6054;DHT22;3055;50.886;14.814;2023-04-30T12:20:10;16.70;1.00
6054;DHT22;3055;50.886;14.814;2023-04-30T12:22:38;16.40;1.00
6054;DHT22;3055;50.886;14.814;2023-04-30T12:25:07;16.50;1.00
6054;DHT22;3055;50.886;14.814;2023-04-30T12:27:36;16.70;1.00
6054;DHT22;3055;50.886;14.814;2023-04-30T12:30:06;16.70;1.00
6054;DHT22;3055;50.886;14.814;2023-04-30T12:32:42;16.60;1.00
6054;DHT22;3055;50.886;14.814;2023-04-30T12:35:13;16.70;1.00
6054;DHT22;3055;50.886;14.814;2023-04-30T12:37:42;17.00;1.00
6054;DHT22;3055;50.886;14.814;2023-04-30T12:40:10;17.10;1.00
6054;DHT22;3055;50.886;14.814;2023-04-30T12:42:37;17.10;1.00
6054;DHT22;3055;50.886;14.814;2023-04-30T12:45:06;17.10;1.00
6054;DHT22;3055;50.886;14.814;2023-04-30T12:47:37;17.00;1.00
6054;DHT22;3055;50.886;14.814;2023-04-30T12:50:09;16.80;1.00
6054;DHT22;3055;50.886;14.814;2023-04-30T12:52:38;16.60;1.00
6054;DHT22;3055;50.886;14.814;2023-04-30T12:55:16;16.50;1.00
6054;DHT22;3055;50.886;14.814;2023-04-30T12:58:05;16.60;1.00
6054;DHT22;3055;50.886;14.814;2023-04-30T13:00:46;16.60;1.00
6054;DHT22;3055;50.886;14.814;2023-04-30T13:03:15;16.70;1.00
6054;DHT22;3055;50.886;14.814;2023-04-30T13:05:45;16.80;1.00
6054;DHT22;3055;50.886;14.814;2023-04-30T13:08:14;17.00;1.00
6054;DHT22;3055;50.886;14.814;2023-04-30T13:10:41;17.40;1.00
6054;DHT22;3055;50.886;14.814;2023-04-30T13:13:09;17.60;1.00
6054;DHT22;3055;50.886;14.814;2023-04-30T13:15:36;17.60;1.00
6054;DHT22;3055;50.886;14.814;2023-04-30T13:18:03;17.70;1.00
6054;DHT22;3055;50.886;14.814;2023-04-30T13:20:33;17.70;1.00
6054;DHT22;3055;50.886;14.814;2023-04-30T13:23:02;17.60;1.00
6054;DHT22;3055;50.886;14.814;2023-04-30T13:25:29;17.70;1.00
6054;DHT22;3055;50.886;14.814;2023-04-30T13:27:56;17.90;1.00
6054;DHT22;3055;50.886;14.814;2023-04-30T13:30:23;18.00;1.00
6054;DHT22;3055;50.886;14.814;2023-04-30T13:32:50;17.80;1.00
6054;DHT22;3055;50.886;14.814;2023-04-30T13:35:18;18.00;1.00
6054;DHT22;3055;50.886;14.814;2023-04-30T13:37:45;17.90;1.00
6054;DHT22;3055;50.886;14.814;2023-04-30T13:40:15;18.10;1.00
6054;DHT22;3055;50.886;14.814;2023-04-30T13:42:43;17.90;1.00
6054;DHT22;3055;50.886;14.814;2023-04-30T13:45:11;18.40;1.00
6054;DHT22;3055;50.886;14.814;2023-04-30T13:47:38;18.60;1.00
6054;DHT22;3055;50.886;14.814;2023-04-30T13:50:06;18.50;1.00
6054;DHT22;3055;50.886;14.814;2023-04-30T13:52:34;18.90;1.00
6054;DHT22;3055;50.886;14.814;2023-04-30T13:55:02;19.30;1.00
6054;DHT22;3055;50.886;14.814;2023-04-30T13:57:31;19.40;1.00
6054;DHT22;3055;50.886;14.814;2023-04-30T13:59:59;19.20;1.00
6054;DHT22;3055;50.886;14.814;2023-04-30T14:02:27;19.10;1.00
6054;DHT22;3055;50.886;14.814;2023-04-30T14:04:54;19.10;1.00
6054;DHT22;3055;50.886;14.814;2023-04-30T14:07:22;19.00;1.00
6054;DHT22;3055;50.886;14.814;2023-04-30T14:09:49;19.30;1.00
6054;DHT22;3055;50.886;14.814;2023-04-30T14:12:16;19.70;1.00
6054;DHT22;3055;50.886;14.814;2023-04-30T14:14:44;20.10;1.00
6054;DHT22;3055;50.886;14.814;2023-04-30T14:17:11;20.20;1.00
6054;DHT22;3055;50.886;14.814;2023-04-30T14:19:38;20.50;1.00
6054;DHT22;3055;50.886;14.814;2023-04-30T14:22:06;21.30;1.00
6054;DHT22;3055;50.886;14.814;2023-04-30T14:24:33;21.80;1.00
6054;DHT22;3055;50.886;14.814;2023-04-30T14:27:00;22.10;1.00
6054;DHT22;3055;50.886;14.814;2023-04-30T14:29:28;21.90;1.00
6054;DHT22;3055;50.886;14.814;2023-04-30T14:31:57;21.60;1.00
6054;DHT22;3055;50.886;14.814;2023-04-30T14:34:24;20.90;1.00
6054;DHT22;3055;50.886;14.814;2023-04-30T14:36:52;20.90;1.00
6054;DHT22;3055;50.886;14.814;2023-04-30T14:39:19;20.90;1.00
6054;DHT22;3055;50.886;14.814;2023-04-30T14:41:46;21.10;1.00
6054;DHT22;3055;50.886;14.814;2023-04-30T14:44:13;21.70;1.00
6054;DHT22;3055;50.886;14.814;2023-04-30T14:46:40;21.70;1.00
6054;DHT22;3055;50.886;14.814;2023-04-30T14:49:08;21.70;1.00
6054;DHT22;3055;50.886;14.814;2023-04-30T14:51:35;21.30;1.00
6054;DHT22;3055;50.886;14.814;2023-04-30T14:54:03;21.00;1.00
6054;DHT22;3055;50.886;14.814;2023-04-30T14:56:30;21.00;1.00
6054;DHT22;3055;50.886;14.814;2023-04-30T14:58:57;21.60;1.00
6054;DHT22;3055;50.886;14.814;2023-04-30T15:01:24;21.40;1.00
6054;DHT22;3055;50.886;14.814;2023-04-30T15:03:51;20.60;1.00
6054;DHT22;3055;50.886;14.814;2023-04-30T15:06:20;20.60;1.00
6054;DHT22;3055;50.886;14.814;2023-04-30T15:08:47;20.90;1.00
6054;DHT22;3055;50.886;14.814;2023-04-30T15:11:14;21.40;1.00
6054;DHT22;3055;50.886;14.814;2023-04-30T15:13:41;21.90;1.00
6054;DHT22;3055;50.886;14.814;2023-04-30T15:16:08;22.50;1.00
6054;DHT22;3055;50.886;14.814;2023-04-30T15:18:35;22.80;1.00
6054;DHT22;3055;50.886;14.814;2023-04-30T15:21:03;21.70;1.00
6054;DHT22;3055;50.886;14.814;2023-04-30T15:23:31;21.70;1.00
6054;DHT22;3055;50.886;14.814;2023-04-30T15:25:58;22.30;1.00
6054;DHT22;3055;50.886;14.814;2023-04-30T15:28:25;22.40;1.00
6054;DHT22;3055;50.886;14.814;2023-04-30T15:30:52;22.20;1.00
6054;DHT22;3055;50.886;14.814;2023-04-30T15:33:19;22.30;1.00
6054;DHT22;3055;50.886;14.814;2023-04-30T15:35:49;22.40;1.00
6054;DHT22;3055;50.886;14.814;2023-04-30T15:38:16;22.30;1.00
6054;DHT22;3055;50.886;14.814;2023-04-30T15:40:47;21.60;1.00
6054;DHT22;3055;50.886;14.814;2023-04-30T15:43:14;21.50;1.00
6054;DHT22;3055;50.886;14.814;2023-04-30T15:45:41;22.10;1.00
6054;DHT22;3055;50.886;14.814;2023-04-30T15:48:10;22.20;1.00
6054;DHT22;3055;50.886;14.814;2023-04-30T15:50:37;22.50;1.00
6054;DHT22;3055;50.886;14.814;2023-04-30T15:53:04;22.20;1.00
6054;DHT22;3055;50.886;14.814;2023-04-30T15:55:31;21.70;1.00
6054;DHT22;3055;50.886;14.814;2023-04-30T15:57:59;22.10;1.00
6054;DHT22;3055;50.886;14.814;2023-04-30T16:00:27;22.70;1.00
6054;DHT22;3055;50.886;14.814;2023-04-30T16:02:54;22.90;1.00
6054;DHT22;3055;50.886;14.814;2023-04-30T16:05:21;23.30;1.00
6054;DHT22;3055;50.886;14.814;2023-04-30T16:07:48;23.60;1.00